sensor_id;sensor_type;location;lat;lon;timestamp;pressure;altitude;pressure_sealevel;temperature;humidity
10720;BME280;5411;58.386;15.560;2022-11-20T00:01:51;100611.00;;;0.08;100.00
10720;BME280;5411;58.386;15.560;2022-11-20T00:04:19;100602.66;;;0.03;100.00
10720;BME280;5411;58.386;15.560;2022-11-20T00:06:47;100617.03;;;-0.02;100.00
10720;BME280;5411;58.386;15.560;2022-11-20T00:09:15;100600.69;;;-0.05;100.00
10720;BME280;5411;58.386;15.560;2022-11-20T00:11:46;100600.81;;;-0.07;100.00
10720;BME280;5411;58.386;15.560;2022-11-20T00:14:17;100592.78;;;-0.05;100.00
10720;BME280;5411;58.386;15.560;2022-11-20T00:16:45;100609.53;;;-0.06;100.00
10720;BME280;5411;58.386;15.560;2022-11-20T00:19:15;100609.66;;;-0.08;100.00
10720;BME280;5411;58.386;15.560;2022-11-20T00:21:44;100601.06;;;-0.10;100.00
10720;BME280;5411;58.386;15.560;2022-11-20T00:24:12;100601.19;;;-0.11;100.00
10720;BME280;5411;58.386;15.560;2022-11-20T00:26:40;100585.28;;;-0.10;100.00
10720;BME280;5411;58.386;15.560;2022-11-20T00:29:08;100588.75;;;-0.09;100.00
10720;BME280;5411;58.386;15.560;2022-11-20T00:31:37;100594.00;;;-0.09;100.00
10720;BME280;5411;58.386;15.560;2022-11-20T00:34:04;100582.53;;;-0.08;100.00
10720;BME280;5411;58.386;15.560;2022-11-20T00:36:34;100585.03;;;-0.07;100.00
10720;BME280;5411;58.386;15.560;2022-11-20T00:39:04;100574.38;;;-0.05;100.00
10720;BME280;5411;58.386;15.560;2022-11-20T00:41:32;100568.03;;;-0.03;100.00
10720;BME280;5411;58.386;15.560;2022-11-20T00:44:00;100568.75;;;-0.01;100.00
10720;BME280;5411;58.386;15.560;2022-11-20T00:46:28;100568.75;;;-0.01;100.00
10720;BME280;5411;58.386;15.560;2022-11-20T00:48:57;100579.81;;;0.03;100.00
10720;BME280;5411;58.386;15.560;2022-11-20T00:51:26;100565.72;;;0.04;100.00
10720;BME280;5411;58.386;15.560;2022-11-20T00:53:57;100558.66;;;0.05;100.00
10720;BME280;5411;58.386;15.560;2022-11-20T00:56:27;100576.81;;;0.08;100.00
10720;BME280;5411;58.386;15.560;2022-11-20T00:58:55;100560.19;;;0.07;100.00
10720;BME280;5411;58.386;15.560;2022-11-20T01:01:25;100559.34;;;0.07;100.00
10720;BME280;5411;58.386;15.560;2022-11-20T01:03:57;100566.28;;;0.08;100.00
10720;BME280;5411;58.386;15.560;2022-11-20T01:06:29;100552.19;;;0.09;100.00
10720;BME280;5411;58.386;15.560;2022-11-20T01:09:01;100553.59;;;0.13;100.00
10720;BME280;5411;58.386;15.560;2022-11-20T01:11:31;100555.09;;;0.15;100.00
10720;BME280;5411;58.386;15.560;2022-11-20T01:14:01;100549.72;;;0.17;100.00
10720;BME280;5411;58.386;15.560;2022-11-20T01:16:31;100547.78;;;0.19;100.00
10720;BME280;5411;58.386;15.560;2022-11-20T01:19:00;100543.09;;;0.22;100.00
10720;BME280;5411;58.386;15.560;2022-11-20T01:21:30;100548.13;;;0.25;100.00
10720;BME280;5411;58.386;15.560;2022-11-20T01:24:01;100535.91;;;0.24;100.00
10720;BME280;5411;58.386;15.560;2022-11-20T01:26:31;100540.72;;;0.19;100.00
10720;BME280;5411;58.386;15.560;2022-11-20T01:29:00;100537.72;;;0.24;100.00
10720;BME280;5411;58.386;15.560;2022-11-20T01:31:31;100533.84;;;0.28;100.00
10720;BME280;5411;58.386;15.560;2022-11-20T01:34:01;100538.72;;;0.32;100.00
10720;BME280;5411;58.386;15.560;2022-11-20T01:36:31;100530.44;;;0.37;100.00
10720;BME280;5411;58.386;15.560;2022-11-20T01:39:04;100544.97;;;0.41;100.00
10720;BME280;5411;58.386;15.560;2022-11-20T01:41:33;100536.41;;;0.39;100.00
10720;BME280;5411;58.386;15.560;2022-11-20T01:44:21;100531.53;;;0.44;100.00
10720;BME280;5411;58.386;15.560;2022-11-20T01:46:55;100524.47;;;0.45;100.00
10720;BME280;5411;58.386;15.560;2022-11-20T01:49:29;100533.47;;;0.42;100.00
10720;BME280;5411;58.386;15.560;2022-11-20T01:52:05;100531.97;;;0.40;100.00
10720;BME280;5411;58.386;15.560;2022-11-20T01:54:41;100533.59;;;0.41;100.00
10720;BME280;5411;58.386;15.560;2022-11-20T01:57:12;100518.94;;;0.38;100.00
10720;BME280;5411;58.386;15.560;2022-11-20T01:59:45;100517.97;;;0.39;100.00
10720;BME280;5411;58.386;15.560;2022-11-20T02:02:15;100516.97;;;0.40;100.00
10720;BME280;5411;58.386;15.560;2022-11-20T02:04:44;100521.28;;;0.41;100.00
10720;BME280;5411;58.386;15.560;2022-11-20T02:07:13;100526.41;;;0.43;100.00
10720;BME280;5411;58.386;15.560;2022-11-20T02:09:43;100517.44;;;0.45;100.00
10720;BME280;5411;58.386;15.560;2022-11-20T02:12:11;100509.53;;;0.45;100.00
10720;BME280;5411;58.386;15.560;2022-11-20T02:14:59;100508.00;;;0.43;100.00
10720;BME280;5411;58.386;15.560;2022-11-20T02:17:26;100500.94;;;0.43;100.00
10720;BME280;5411;58.386;15.560;2022-11-20T02:19:54;100515.19;;;0.41;100.00
10720;BME280;5411;58.386;15.560;2022-11-20T02:22:28;100498.28;;;0.43;100.00
10720;BME280;5411;58.386;15.560;2022-11-20T02:25:01;100504.41;;;0.44;100.00
10720;BME280;5411;58.386;15.560;2022-11-20T02:27:30;100493.16;;;0.42;100.00
10720;BME280;5411;58.386;15.560;2022-11-20T02:30:01;100482.38;;;0.45;100.00
10720;BME280;5411;58.386;15.560;2022-11-20T02:32:32;100484.19;;;0.44;100.00
10720;BME280;5411;58.386;15.560;2022-11-20T02:35:07;100484.88;;;0.46;100.00
10720;BME280;5411;58.386;15.560;2022-11-20T02:37:38;100483.09;;;0.47;100.00
10720;BME280;5411;58.386;15.560;2022-11-20T02:40:11;100468.13;;;0.47;100.00
10720;BME280;5411;58.386;15.560;2022-11-20T02:42:39;100471.47;;;0.49;100.00
10720;BME280;5411;58.386;15.560;2022-11-20T02:45:08;100476.84;;;0.48;100.00
10720;BME280;5411;58.386;15.560;2022-11-20T02:47:38;100473.97;;;0.51;100.00
10720;BME280;5411;58.386;15.560;2022-11-20T02:50:15;100458.69;;;0.54;100.00
10720;BME280;5411;58.386;15.560;2022-11-20T02:52:43;100463.97;;;0.54;100.00
10720;BME280;5411;58.386;15.560;2022-11-20T02:55:12;100456.91;;;0.55;100.00
10720;BME280;5411;58.386;15.560;2022-11-20T02:57:40;100454.97;;;0.57;100.00
10720;BME280;5411;58.386;15.560;2022-11-20T03:00:09;100458.19;;;0.60;100.00
10720;BME280;5411;58.386;15.560;2022-11-20T03:02:38;100454.72;;;0.60;100.00
10720;BME280;5411;58.386;15.560;2022-11-20T03:05:06;100451.13;;;0.61;100.00
10720;BME280;5411;58.386;15.560;2022-11-20T03:07:34;100446.69;;;0.61;100.00
10720;BME280;5411;58.386;15.560;2022-11-20T03:10:03;100449.31;;;0.61;100.00
10720;BME280;5411;58.386;15.560;2022-11-20T03:12:33;100440.59;;;0.61;100.00
10720;BME280;5411;58.386;15.560;2022-11-20T03:15:02;100439.88;;;0.59;100.00
10720;BME280;5411;58.386;15.560;2022-11-20T03:17:30;100442.50;;;0.59;100.00
10720;BME280;5411;58.386;15.560;2022-11-20T03:19:58;100440.44;;;0.62;100.00
10720;BME280;5411;58.386;15.560;2022-11-20T03:22:28;100434.34;;;0.62;100.00
10720;BME280;5411;58.386;15.560;2022-11-20T03:24:56;100437.69;;;0.64;100.00
10720;BME280;5411;58.386;15.560;2022-11-20T03:27:24;100431.31;;;0.66;100.00
10720;BME280;5411;58.386;15.560;2022-11-20T03:29:53;100423.56;;;0.65;100.00
10720;BME280;5411;58.386;15.560;2022-11-20T03:32:21;100421.19;;;0.62;100.00
10720;BME280;5411;58.386;15.560;2022-11-20T03:34:49;100421.31;;;0.60;100.00
10720;BME280;5411;58.386;15.560;2022-11-20T03:37:18;100411.06;;;0.57;100.00
10720;BME280;5411;58.386;15.560;2022-11-20T03:39:46;100404.84;;;0.58;100.00
10720;BME280;5411;58.386;15.560;2022-11-20T03:42:14;100417.16;;;0.58;100.00
10720;BME280;5411;58.386;15.560;2022-11-20T03:44:58;100407.34;;;0.60;100.00
10720;BME280;5411;58.386;15.560;2022-11-20T03:47:26;100403.31;;;0.56;100.00
10720;BME280;5411;58.386;15.560;2022-11-20T03:49:54;100401.38;;;0.58;100.00
10720;BME280;5411;58.386;15.560;2022-11-20T03:52:22;100390.84;;;0.58;100.00
10720;BME280;5411;58.386;15.560;2022-11-20T03:54:50;100396.09;;;0.58;100.00
10720;BME280;5411;58.386;15.560;2022-11-20T03:57:17;100394.56;;;0.55;100.00
10720;BME280;5411;58.386;15.560;2022-11-20T03:59:46;100399.84;;;0.55;100.00
10720;BME280;5411;58.386;15.560;2022-11-20T04:02:15;100390.28;;;0.54;100.00
10720;BME280;5411;58.386;15.560;2022-11-20T04:04:43;100399.97;;;0.54;100.00
10720;BME280;5411;58.386;15.560;2022-11-20T04:07:12;100386.00;;;0.53;100.00
10720;BME280;5411;58.386;15.560;2022-11-20T04:09:40;100391.28;;;0.53;100.00
10720;BME280;5411;58.386;15.560;2022-11-20T04:12:08;100379.22;;;0.51;100.00
10720;BME280;5411;58.386;15.560;2022-11-20T04:14:37;100375.75;;;0.50;100.00
10720;BME280;5411;58.386;15.560;2022-11-20T04:17:05;100378.25;;;0.52;100.00
10720;BME280;5411;58.386;15.560;2022-11-20T04:19:35;100377.13;;;0.54;100.00
10720;BME280;5411;58.386;15.560;2022-11-20T04:22:03;100374.47;;;0.54;100.00
10720;BME280;5411;58.386;15.560;2022-11-20T04:24:34;100372.56;;;0.56;100.00
10720;BME280;5411;58.386;15.560;2022-11-20T04:27:03;100361.50;;;0.53;100.00
10720;BME280;5411;58.386;15.560;2022-11-20T04:29:32;100371.31;;;0.51;100.00
10720;BME280;5411;58.386;15.560;2022-11-20T04:32:00;100370.63;;;0.49;100.00
10720;BME280;5411;58.386;15.560;2022-11-20T04:34:28;100373.13;;;0.50;100.00
10720;BME280;5411;58.386;15.560;2022-11-20T04:36:59;100369.94;;;0.47;100.00
10720;BME280;5411;58.386;15.560;2022-11-20T04:39:27;100363.13;;;0.44;100.00
10720;BME280;5411;58.386;15.560;2022-11-20T04:41:55;100357.16;;;0.42;100.00
10720;BME280;5411;58.386;15.560;2022-11-20T04:44:37;100355.50;;;0.41;100.00
10720;BME280;5411;58.386;15.560;2022-11-20T04:47:05;100364.22;;;0.42;100.00
10720;BME280;5411;58.386;15.560;2022-11-20T04:49:34;100345.16;;;0.40;100.00
10720;BME280;5411;58.386;15.560;2022-11-20T04:52:04;100347.91;;;0.38;100.00
10720;BME280;5411;58.386;15.560;2022-11-20T04:54:36;100344.44;;;0.38;100.00
10720;BME280;5411;58.386;15.560;2022-11-20T04:57:05;100339.31;;;0.36;100.00
10720;BME280;5411;58.386;15.560;2022-11-20T04:59:40;100343.31;;;0.40;100.00
10720;BME280;5411;58.386;15.560;2022-11-20T05:02:09;100335.97;;;0.44;100.00
10720;BME280;5411;58.386;15.560;2022-11-20T05:04:37;100335.16;;;0.43;100.00
10720;BME280;5411;58.386;15.560;2022-11-20T05:07:06;100332.53;;;0.43;100.00
10720;BME280;5411;58.386;15.560;2022-11-20T05:09:34;100332.38;;;0.45;100.00
10720;BME280;5411;58.386;15.560;2022-11-20T05:12:03;100336.56;;;0.47;100.00
10720;BME280;5411;58.386;15.560;2022-11-20T05:14:31;100334.63;;;0.49;100.00
10720;BME280;5411;58.386;15.560;2022-11-20T05:16:59;100332.25;;;0.46;100.00
10720;BME280;5411;58.386;15.560;2022-11-20T05:19:27;100323.53;;;0.46;100.00
10720;BME280;5411;58.386;15.560;2022-11-20T05:21:55;100328.78;;;0.46;100.00
10720;BME280;5411;58.386;15.560;2022-11-20T05:24:24;100325.19;;;0.47;100.00
10720;BME280;5411;58.386;15.560;2022-11-20T05:26:52;100331.28;;;0.47;100.00
10720;BME280;5411;58.386;15.560;2022-11-20T05:29:20;100321.72;;;0.46;100.00
10720;BME280;5411;58.386;15.560;2022-11-20T05:31:49;100317.69;;;0.42;100.00
10720;BME280;5411;58.386;15.560;2022-11-20T05:34:17;100317.69;;;0.42;100.00
10720;BME280;5411;58.386;15.560;2022-11-20T05:36:45;100315.06;;;0.42;100.00
10720;BME280;5411;58.386;15.560;2022-11-20T05:39:14;100313.28;;;0.43;100.00
10720;BME280;5411;58.386;15.560;2022-11-20T05:41:47;100315.91;;;0.43;100.00
10720;BME280;5411;58.386;15.560;2022-11-20T05:44:36;100307.19;;;0.42;100.00
10720;BME280;5411;58.386;15.560;2022-11-20T05:47:04;100309.09;;;0.40;100.00
10720;BME280;5411;58.386;15.560;2022-11-20T05:49:32;100302.06;;;0.41;100.00
10720;BME280;5411;58.386;15.560;2022-11-20T05:52:00;100303.56;;;0.43;100.00
10720;BME280;5411;58.386;15.560;2022-11-20T05:54:28;100312.31;;;0.44;100.00
10720;BME280;5411;58.386;15.560;2022-11-20T05:56:58;100299.97;;;0.44;100.00
10720;BME280;5411;58.386;15.560;2022-11-20T05:59:26;100303.56;;;0.43;100.00
10720;BME280;5411;58.386;15.560;2022-11-20T06:01:54;100303.44;;;0.45;100.00
10720;BME280;5411;58.386;15.560;2022-11-20T06:04:22;100299.72;;;0.47;100.00
10720;BME280;5411;58.386;15.560;2022-11-20T06:06:51;100295.13;;;0.49;100.00
10720;BME280;5411;58.386;15.560;2022-11-20T06:09:18;100289.03;;;0.49;100.00
10720;BME280;5411;58.386;15.560;2022-11-20T06:11:47;100294.72;;;0.44;100.00
10720;BME280;5411;58.386;15.560;2022-11-20T06:14:16;100296.38;;;0.45;100.00
10720;BME280;5411;58.386;15.560;2022-11-20T06:16:44;100291.38;;;0.42;100.00
10720;BME280;5411;58.386;15.560;2022-11-20T06:19:13;100290.56;;;0.42;100.00
10720;BME280;5411;58.386;15.560;2022-11-20T06:21:41;100299.84;;;0.46;100.00
10720;BME280;5411;58.386;15.560;2022-11-20T06:24:10;100295.41;;;0.46;100.00
10720;BME280;5411;58.386;15.560;2022-11-20T06:26:38;100291.53;;;0.50;100.00
10720;BME280;5411;58.386;15.560;2022-11-20T06:29:06;100289.59;;;0.52;100.00
10720;BME280;5411;58.386;15.560;2022-11-20T06:31:36;100283.66;;;0.50;100.00
10720;BME280;5411;58.386;15.560;2022-11-20T06:34:04;100282.53;;;0.53;100.00
10720;BME280;5411;58.386;15.560;2022-11-20T06:36:33;100287.25;;;0.49;100.00
10720;BME280;5411;58.386;15.560;2022-11-20T06:39:03;100282.13;;;0.48;100.00
10720;BME280;5411;58.386;15.560;2022-11-20T06:41:31;100284.63;;;0.49;100.00
10720;BME280;5411;58.386;15.560;2022-11-20T06:43:59;100276.72;;;0.49;100.00
10720;BME280;5411;58.386;15.560;2022-11-20T06:46:27;100278.38;;;0.50;100.00
10720;BME280;5411;58.386;15.560;2022-11-20T06:48:56;100270.22;;;0.53;100.00
10720;BME280;5411;58.386;15.560;2022-11-20T06:51:25;100263.28;;;0.52;100.00
10720;BME280;5411;58.386;15.560;2022-11-20T06:53:53;100276.44;;;0.52;100.00
10720;BME280;5411;58.386;15.560;2022-11-20T06:56:21;100268.25;;;0.55;100.00
10720;BME280;5411;58.386;15.560;2022-11-20T06:58:49;100269.06;;;0.56;100.00
10720;BME280;5411;58.386;15.560;2022-11-20T07:01:17;100265.34;;;0.58;100.00
10720;BME280;5411;58.386;15.560;2022-11-20T07:03:48;100264.50;;;0.58;100.00
10720;BME280;5411;58.386;15.560;2022-11-20T07:06:21;100252.59;;;0.54;100.00
10720;BME280;5411;58.386;15.560;2022-11-20T07:08:50;100262.31;;;0.53;100.00
10720;BME280;5411;58.386;15.560;2022-11-20T07:11:18;100259.00;;;0.51;100.00
10720;BME280;5411;58.386;15.560;2022-11-20T07:13:47;100252.44;;;0.55;100.00
10720;BME280;5411;58.386;15.560;2022-11-20T07:16:15;100246.22;;;0.56;100.00
10720;BME280;5411;58.386;15.560;2022-11-20T07:18:43;100245.13;;;0.59;100.00
10720;BME280;5411;58.386;15.560;2022-11-20T07:21:16;100244.97;;;0.60;100.00
10720;BME280;5411;58.386;15.560;2022-11-20T07:23:46;100247.34;;;0.63;100.00
10720;BME280;5411;58.386;15.560;2022-11-20T07:26:14;100242.06;;;0.63;100.00
10720;BME280;5411;58.386;15.560;2022-11-20T07:28:44;100236.66;;;0.65;100.00
10720;BME280;5411;58.386;15.560;2022-11-20T07:31:12;100240.97;;;0.66;100.00
10720;BME280;5411;58.386;15.560;2022-11-20T07:33:45;100242.44;;;0.68;100.00
10720;BME280;5411;58.386;15.560;2022-11-20T07:36:14;100234.28;;;0.71;100.00
10720;BME280;5411;58.386;15.560;2022-11-20T07:38:46;100229.69;;;0.74;100.00
10720;BME280;5411;58.386;15.560;2022-11-20T07:41:14;100234.81;;;0.75;100.00
10720;BME280;5411;58.386;15.560;2022-11-20T07:43:42;100235.66;;;0.76;100.00
10720;BME280;5411;58.386;15.560;2022-11-20T07:46:10;100231.38;;;0.75;100.00
10720;BME280;5411;58.386;15.560;2022-11-20T07:48:39;100239.81;;;0.78;100.00
10720;BME280;5411;58.386;15.560;2022-11-20T07:51:07;100230.94;;;0.79;100.00
10720;BME280;5411;58.386;15.560;2022-11-20T07:53:36;100221.91;;;0.82;100.00
10720;BME280;5411;58.386;15.560;2022-11-20T07:56:06;100229.53;;;0.85;100.00
10720;BME280;5411;58.386;15.560;2022-11-20T07:58:35;100228.16;;;0.81;100.00
10720;BME280;5411;58.386;15.560;2022-11-20T08:01:03;100216.63;;;0.82;100.00
10720;BME280;5411;58.386;15.560;2022-11-20T08:03:32;100215.38;;;0.86;100.00
10720;BME280;5411;58.386;15.560;2022-11-20T08:06:02;100217.75;;;0.89;100.00
10720;BME280;5411;58.386;15.560;2022-11-20T08:08:30;100218.44;;;0.91;100.00
10720;BME280;5411;58.386;15.560;2022-11-20T08:11:00;100209.56;;;0.92;100.00
10720;BME280;5411;58.386;15.560;2022-11-20T08:13:43;100202.31;;;0.94;100.00
10720;BME280;5411;58.386;15.560;2022-11-20T08:16:29;100200.00;;;0.91;100.00
10720;BME280;5411;58.386;15.560;2022-11-20T08:18:57;100207.91;;;0.91;100.00
10720;BME280;5411;58.386;15.560;2022-11-20T08:21:25;100207.06;;;0.90;100.00
10720;BME280;5411;58.386;15.560;2022-11-20T08:23:53;100202.50;;;0.92;100.00
10720;BME280;5411;58.386;15.560;2022-11-20T08:26:23;100211.75;;;0.96;100.00
10720;BME280;5411;58.386;15.560;2022-11-20T08:28:54;100194.53;;;1.02;100.00
10720;BME280;5411;58.386;15.560;2022-11-20T08:31:25;100183.88;;;1.03;100.00
10720;BME280;5411;58.386;15.560;2022-11-20T08:33:53;100187.19;;;1.05;100.00
10720;BME280;5411;58.386;15.560;2022-11-20T08:36:23;100189.13;;;1.03;100.00
10720;BME280;5411;58.386;15.560;2022-11-20T08:38:53;100194.91;;;1.07;100.00
10720;BME280;5411;58.386;15.560;2022-11-20T08:41:22;100185.06;;;1.09;100.00
10720;BME280;5411;58.386;15.560;2022-11-20T08:44:01;100186.28;;;1.15;100.00
10720;BME280;5411;58.386;15.560;2022-11-20T08:46:33;100181.44;;;1.20;100.00
10720;BME280;5411;58.386;15.560;2022-11-20T08:49:02;100176.66;;;1.23;100.00
10720;BME280;5411;58.386;15.560;2022-11-20T08:51:30;100171.81;;;1.28;100.00
10720;BME280;5411;58.386;15.560;2022-11-20T08:53:59;100165.69;;;1.28;100.00
10720;BME280;5411;58.386;15.560;2022-11-20T08:56:27;100169.84;;;1.30;100.00
10720;BME280;5411;58.386;15.560;2022-11-20T08:58:55;100165.09;;;1.34;100.00
10720;BME280;5411;58.386;15.560;2022-11-20T09:01:45;100165.19;;;1.42;100.00
10720;BME280;5411;58.386;15.560;2022-11-20T09:04:13;100156.75;;;1.38;100.00
10720;BME280;5411;58.386;15.560;2022-11-20T09:06:41;100153.13;;;1.39;100.00
10720;BME280;5411;58.386;15.560;2022-11-20T09:09:10;100161.72;;;1.41;100.00
10720;BME280;5411;58.386;15.560;2022-11-20T09:11:38;100152.22;;;1.49;100.00
10720;BME280;5411;58.386;15.560;2022-11-20T09:14:06;100152.47;;;1.55;100.00
10720;BME280;5411;58.386;15.560;2022-11-20T09:16:34;100148.72;;;1.58;100.00
10720;BME280;5411;58.386;15.560;2022-11-20T09:19:03;100147.81;;;1.67;100.00
10720;BME280;5411;58.386;15.560;2022-11-20T09:21:52;100145.56;;;1.72;100.00
10720;BME280;5411;58.386;15.560;2022-11-20T09:24:25;100150.22;;;1.78;100.00
10720;BME280;5411;58.386;15.560;2022-11-20T09:26:54;100146.44;;;1.81;100.00
10720;BME280;5411;58.386;15.560;2022-11-20T09:29:22;100147.13;;;1.83;100.00
10720;BME280;5411;58.386;15.560;2022-11-20T09:31:50;100151.88;;;1.79;100.00
10720;BME280;5411;58.386;15.560;2022-11-20T09:34:19;100149.22;;;1.79;100.00
10720;BME280;5411;58.386;15.560;2022-11-20T09:36:49;100142.44;;;1.76;100.00
10720;BME280;5411;58.386;15.560;2022-11-20T09:39:17;100136.66;;;1.73;100.00
10720;BME280;5411;58.386;15.560;2022-11-20T09:41:55;100129.19;;;1.68;100.00
10720;BME280;5411;58.386;15.560;2022-11-20T09:44:45;100123.63;;;1.71;100.00
10720;BME280;5411;58.386;15.560;2022-11-20T09:47:22;100123.16;;;1.76;100.00
10720;BME280;5411;58.386;15.560;2022-11-20T09:50:10;100112.16;;;1.81;100.00
10720;BME280;5411;58.386;15.560;2022-11-20T09:52:49;100114.41;;;1.75;100.00
10720;BME280;5411;58.386;15.560;2022-11-20T09:55:23;100111.94;;;1.74;100.00
10720;BME280;5411;58.386;15.560;2022-11-20T09:57:52;100103.38;;;1.72;100.00
10720;BME280;5411;58.386;15.560;2022-11-20T10:00:20;100098.59;;;1.75;100.00
10720;BME280;5411;58.386;15.560;2022-11-20T10:02:53;100101.75;;;1.79;100.00
10720;BME280;5411;58.386;15.560;2022-11-20T10:05:26;100094.38;;;1.83;100.00
10720;BME280;5411;58.386;15.560;2022-11-20T10:08:04;100090.63;;;1.85;100.00
10720;BME280;5411;58.386;15.560;2022-11-20T10:10:41;100087.00;;;1.86;100.00
10720;BME280;5411;58.386;15.560;2022-11-20T10:13:27;100086.31;;;1.84;100.00
10720;BME280;5411;58.386;15.560;2022-11-20T10:16:08;100086.63;;;1.81;100.00
10720;BME280;5411;58.386;15.560;2022-11-20T10:18:48;100081.34;;;1.81;100.00
10720;BME280;5411;58.386;15.560;2022-11-20T10:21:27;100078.56;;;1.83;100.00
10720;BME280;5411;58.386;15.560;2022-11-20T10:24:08;100063.56;;;1.83;100.00
10720;BME280;5411;58.386;15.560;2022-11-20T10:26:51;100057.47;;;1.83;100.00
10720;BME280;5411;58.386;15.560;2022-11-20T10:29:29;100068.84;;;1.83;100.00
10720;BME280;5411;58.386;15.560;2022-11-20T10:32:02;100057.16;;;1.86;100.00
10720;BME280;5411;58.386;15.560;2022-11-20T10:34:35;100062.72;;;1.83;100.00
10720;BME280;5411;58.386;15.560;2022-11-20T10:37:14;100061.00;;;1.73;100.00
10720;BME280;5411;58.386;15.560;2022-11-20T10:39:50;100047.16;;;1.71;100.00
10720;BME280;5411;58.386;15.560;2022-11-20T10:42:28;100050.16;;;1.76;100.00
10720;BME280;5411;58.386;15.560;2022-11-20T10:45:02;100049.69;;;1.81;100.00
10720;BME280;5411;58.386;15.560;2022-11-20T10:47:37;100048.03;;;1.80;100.00
10720;BME280;5411;58.386;15.560;2022-11-20T10:50:10;100045.59;;;1.87;100.00
10720;BME280;5411;58.386;15.560;2022-11-20T10:52:53;100035.56;;;1.90;100.00
10720;BME280;5411;58.386;15.560;2022-11-20T10:55:32;100033.16;;;1.97;100.00
10720;BME280;5411;58.386;15.560;2022-11-20T10:58:07;100026.56;;;2.01;100.00
10720;BME280;5411;58.386;15.560;2022-11-20T11:00:38;100029.88;;;2.03;100.00
10720;BME280;5411;58.386;15.560;2022-11-20T11:03:20;100030.72;;;2.03;100.00
10720;BME280;5411;58.386;15.560;2022-11-20T11:05:53;100029.38;;;1.99;100.00
10720;BME280;5411;58.386;15.560;2022-11-20T11:08:26;100024.69;;;1.85;100.00
10720;BME280;5411;58.386;15.560;2022-11-20T11:10:58;100023.09;;;1.74;100.00
10720;BME280;5411;58.386;15.560;2022-11-20T11:13:30;100024.72;;;1.67;100.00
10720;BME280;5411;58.386;15.560;2022-11-20T11:15:58;100028.03;;;1.69;100.00
10720;BME280;5411;58.386;15.560;2022-11-20T11:18:28;100026.38;;;1.68;100.00
10720;BME280;5411;58.386;15.560;2022-11-20T11:20:58;100016.50;;;1.70;100.00
10720;BME280;5411;58.386;15.560;2022-11-20T11:23:32;100010.59;;;1.76;100.00
10720;BME280;5411;58.386;15.560;2022-11-20T11:26:04;100002.91;;;1.83;100.00
10720;BME280;5411;58.386;15.560;2022-11-20T11:28:32;99989.56;;;1.85;100.00
10720;BME280;5411;58.386;15.560;2022-11-20T11:31:01;99985.28;;;1.84;100.00
10720;BME280;5411;58.386;15.560;2022-11-20T11:33:29;99978.28;;;1.74;100.00
10720;BME280;5411;58.386;15.560;2022-11-20T11:36:01;99964.28;;;1.74;100.00
10720;BME280;5411;58.386;15.560;2022-11-20T11:38:35;99968.56;;;1.75;100.00
10720;BME280;5411;58.386;15.560;2022-11-20T11:41:19;99966.25;;;1.72;100.00
10720;BME280;5411;58.386;15.560;2022-11-20T11:43:51;99972.03;;;1.75;100.00
10720;BME280;5411;58.386;15.560;2022-11-20T11:46:39;99965.28;;;1.73;100.00
10720;BME280;5411;58.386;15.560;2022-11-20T11:49:16;99969.03;;;1.70;100.00
10720;BME280;5411;58.386;15.560;2022-11-20T11:51:59;99963.94;;;1.69;100.00
10720;BME280;5411;58.386;15.560;2022-11-20T11:54:36;99953.22;;;1.70;100.00
10720;BME280;5411;58.386;15.560;2022-11-20T11:57:20;99942.53;;;1.72;100.00
10720;BME280;5411;58.386;15.560;2022-11-20T12:00:00;99941.56;;;1.73;100.00
10720;BME280;5411;58.386;15.560;2022-11-20T12:02:36;99939.22;;;1.70;100.00
10720;BME280;5411;58.386;15.560;2022-11-20T12:05:16;99944.50;;;1.70;100.00
10720;BME280;5411;58.386;15.560;2022-11-20T12:07:47;99941.69;;;1.71;100.00
10720;BME280;5411;58.386;15.560;2022-11-20T12:10:21;99939.22;;;1.70;100.00
10720;BME280;5411;58.386;15.560;2022-11-20T12:12:54;99936.56;;;1.70;100.00
10720;BME280;5411;58.386;15.560;2022-11-20T12:15:30;99931.91;;;1.64;100.00
10720;BME280;5411;58.386;15.560;2022-11-20T12:17:58;99919.56;;;1.64;100.00
10720;BME280;5411;58.386;15.560;2022-11-20T12:20:33;99930.78;;;1.66;100.00
10720;BME280;5411;58.386;15.560;2022-11-20T12:23:09;99917.75;;;1.65;100.00
10720;BME280;5411;58.386;15.560;2022-11-20T12:25:45;99919.94;;;1.69;100.00
10720;BME280;5411;58.386;15.560;2022-11-20T12:28:29;99913.69;;;1.70;100.00
10720;BME280;5411;58.386;15.560;2022-11-20T12:31:17;99908.91;;;1.74;100.00
10720;BME280;5411;58.386;15.560;2022-11-20T12:33:58;99905.44;;;1.73;100.00
10720;BME280;5411;58.386;15.560;2022-11-20T12:36:39;99889.78;;;1.72;100.00
10720;BME280;5411;58.386;15.560;2022-11-20T12:39:25;99891.09;;;1.68;100.00
10720;BME280;5411;58.386;15.560;2022-11-20T12:49:02;99872.84;;;1.49;100.00
10720;BME280;5411;58.386;15.560;2022-11-20T12:51:53;99870.56;;;1.46;100.00
10720;BME280;5411;58.386;15.560;2022-11-20T12:54:48;99868.91;;;1.45;100.00
10720;BME280;5411;58.386;15.560;2022-11-20T12:57:24;99868.38;;;1.41;100.00
10720;BME280;5411;58.386;15.560;2022-11-20T13:00:07;99860.63;;;1.39;100.00
10720;BME280;5411;58.386;15.560;2022-11-20T13:02:44;99852.03;;;1.37;100.00
10720;BME280;5411;58.386;15.560;2022-11-20T13:05:21;99856.97;;;1.32;100.00
10720;BME280;5411;58.386;15.560;2022-11-20T13:07:53;99844.09;;;1.29;100.00
10720;BME280;5411;58.386;15.560;2022-11-20T13:10:27;99846.44;;;1.32;100.00
10720;BME280;5411;58.386;15.560;2022-11-20T13:13:07;99854.69;;;1.37;100.00
10720;BME280;5411;58.386;15.560;2022-11-20T13:15:47;99851.22;;;1.37;100.00
10720;BME280;5411;58.386;15.560;2022-11-20T13:18:19;99839.00;;;1.28;100.00
10720;BME280;5411;58.386;15.560;2022-11-20T13:20:47;99833.34;;;1.23;100.00